Terminal Aerodrome Forecast
Issued by NWS

Home | Current Version | Previous Version | Text Only | Print | Product List | Glossary On
Versions: 1 2 3 4 5 6 7 8 9 10 11 12 13 14
000
FTUS46 KSGX 011700
TAFCRQ
TAF
KCRQ 011727Z 0118/0218 27007KT P6SM FEW200
     FM020300 VRB03KT P6SM VCFG FEW003 SCT200
     FM020900 VRB03KT 1SM BR SCT002 SCT200
      TEMPO 0211/0214 1/2SM FG BKN002
     FM021600 VRB03KT 3SM BR FEW003 BKN200=

USA.gov is the U.S. government's official web portal to all federal, state and local government web resources and services.